Flight Track Log - Related Links

Times and Time Zones

All times are in EDT time to prevent confusion due to time zone crossing. See the N566UA flight status page for this flight to view local times or setup timezone preferences in your user account.

Time Position Orientation Groundspeed Altitude Reporting Facility
EDT Latitude Longitude Course Direction KTS MPH feet Rate Location/Type
Fri 10:36:38 AM 33.9000 -118.4833 90° East 233 268 3,000  Level Southern California TRACON
Fri 10:37:24 AM 33.8514 -118.4883 185° South 253 291 5,300 2,722 Climbing Los Angeles Center
Fri 10:38:00 AM 33.7721 -118.6295 132° Southeast  Level FlightAware Approximate
Fri 10:38:26 AM 33.7878 -118.5019 190° South 270 311 7,900  Level Los Angeles Center
Fri 10:39:00 AM 33.6888 -118.5235 134° Southeast  Level FlightAware Approximate
Fri 10:39:27 AM 33.6931 -118.5011 180° South 311 358 10,900  Level Los Angeles Center
Fri 10:40:00 AM 33.6543 -118.3858 116° Southeast  Level FlightAware Approximate
Fri 10:40:29 AM 33.6583 -118.3978 112° Southeast 346 398 13,500  Level Los Angeles Center
Fri 10:41:00 AM 33.6333 -118.2458 90° East  Level FlightAware Approximate
Fri 10:41:31 AM 33.6447 -118.2775 98° East 371 427 15,600  Level Los Angeles Center
Fri 10:42:32 AM 33.6433 -118.1492 91° East 391 450 17,900 2,000 Climbing Los Angeles Center
Fri 10:43:34 AM 33.6436 -117.9872 90° East 409 471 19,700 1,659 Climbing Los Angeles Center
Fri 10:44:35 AM 33.6431 -117.8381 90° East 447 514 21,300 1,512 Climbing Los Angeles Center
Fri 10:45:37 AM 33.6428 -117.7139 90° East 463 533 22,800 1,694 Climbing Los Angeles Center
Fri 10:46:39 AM 33.6408 -117.5239 91° East 477 549 24,800 1,854 Climbing Los Angeles Center
Fri 10:47:40 AM 33.6244 -117.3600 97° East 498 573 26,600 1,610 Climbing Los Angeles Center
Fri 10:48:42 AM 33.6047 -117.1975 98° East 496 571 28,100 1,452 Climbing Los Angeles Center
Fri 10:49:44 AM 33.5828 -117.0142 98° East 507 583 29,600 1,512 Climbing Los Angeles Center
Fri 10:50:45 AM 33.5617 -116.8464 99° East 509 586 31,200 1,512 Climbing Los Angeles Center
Fri 10:51:47 AM 33.5422 -116.6781 98° East 508 585 32,700 1,258 Climbing Los Angeles Center
Fri 10:52:49 AM 33.5203 -116.5108 99° East 508 585 33,800 1,122 Climbing Los Angeles Center
Fri 10:53:50 AM 33.5000 -116.3428 98° East 508 585 35,000 585 Climbing Los Angeles Center
Fri 10:54:52 AM 33.4786 -116.1742 99° East 508 585 35,000  Level Los Angeles Center
Fri 10:55:54 AM 33.4533 -115.9744 99° East 504 580 35,000  Level Los Angeles Center
Fri 10:56:55 AM 33.4317 -115.8108 99° East 499 574 35,000  Level Los Angeles Center
Fri 10:57:57 AM 33.4106 -115.6456 99° East 499 574 35,000  Level Los Angeles Center
Fri 10:58:59 AM 33.3892 -115.4828 99° East 496 571 35,000  Level Los Angeles Center
Fri 11:00:01 AM 33.3683 -115.3189 99° East 498 573 35,000 -48 Level Los Angeles Center
Fri 11:01:03 AM 33.3456 -115.1544 99° East 499 574 34,900 -49 Descending Los Angeles Center
Fri 11:02:04 AM 33.3233 -114.9894 99° East 503 579 34,900  Level Los Angeles Center
Fri 11:03:06 AM 33.2958 -114.7917 99° East 503 579 34,900 48 Level Los Angeles Center
Fri 11:04:08 AM 33.2769 -114.6244 98° East 505 581 35,000 48 Climbing Albuquerque Center
Fri 11:05:10 AM 33.2517 -114.4581 100° East 508 585 35,000  Level Albuquerque Center
Fri 11:06:12 AM 33.2278 -114.2911 100° East 511 588 35,000  Level Albuquerque Center
Fri 11:07:14 AM 33.2050 -114.1233 99° East 512 589 35,000  Level Albuquerque Center
Fri 11:08:16 AM 33.1803 -113.9553 100° East 513 590 35,000  Level Albuquerque Center
Fri 11:09:18 AM 33.1569 -113.7892 99° East 510 587 35,000 -645 Level Albuquerque Center
Fri 11:11:22 AM 33.1022 -113.4297 100° East 499 574 33,000 -645 Descending Albuquerque Center
Fri 11:12:24 AM 33.0786 -113.2650 100° East 502 578 33,000  Level Albuquerque Center
Fri 11:13:26 AM 33.0533 -113.1036 101° East 497 572 33,000 -48 Level Albuquerque Center
Fri 11:14:28 AM 33.0286 -112.9414 100° East 495 570 32,900  Descending Albuquerque Center
Fri 11:15:30 AM 33.0033 -112.7789 100° East 495 570 33,000 48 Climbing Albuquerque Center
Fri 11:16:32 AM 32.9775 -112.6153 101° East 498 573 33,000  Level Albuquerque Center
Fri 11:17:34 AM 32.9519 -112.4525 101° East 498 573 33,000  Level Albuquerque Center
Fri 11:18:36 AM 32.9211 -112.2569 101° East 499 574 33,000  Level Albuquerque Center
Fri 11:19:38 AM 32.8961 -112.0914 100° East 500 575 33,000  Level Albuquerque Center
Fri 11:20:40 AM 32.8694 -111.9314 101° East 498 573 33,000  Level Albuquerque Center
Fri 11:21:42 AM 32.8436 -111.7694 101° East 500 575 33,000  Level Albuquerque Center
Fri 11:22:44 AM 32.8181 -111.6069 101° East 502 578 33,000  Level Albuquerque Center
Fri 11:23:46 AM 32.7911 -111.4467 101° East 500 575 33,000  Level Albuquerque Center
Fri 11:24:48 AM 32.7583 -111.2536 101° East 500 575 33,000  Level Albuquerque Center
Fri 11:25:50 AM 32.7303 -111.0908 102° East 504 580 33,000  Level Albuquerque Center
Fri 11:26:52 AM 32.7042 -110.9289 101° East 503 579 33,000  Level Albuquerque Center
Fri 11:27:54 AM 32.6753 -110.7678 102° East 502 578 33,000  Level Albuquerque Center
Fri 11:28:56 AM 32.6486 -110.6053 101° East 503 579 33,000  Level Albuquerque Center
Fri 11:29:58 AM 32.6133 -110.4125 102° East 501 577 33,000  Level Albuquerque Center
Fri 11:31:00 AM 32.5869 -110.2608 102° East 501 577 33,000  Level Albuquerque Center
Fri 11:32:03 AM 32.5583 -110.1011 102° East 501 577 33,000  Level Albuquerque Center
Fri 11:33:05 AM 32.5300 -109.9422 102° East 499 574 33,000  Level Albuquerque Center
Fri 11:34:07 AM 32.4953 -109.7547 102° East 494 568 33,000  Level Albuquerque Center
Fri 11:35:09 AM 32.4656 -109.5953 102° East 501 577 33,000  Level Albuquerque Center
Fri 11:36:11 AM 32.4372 -109.4386 102° East 497 572 33,000  Level Albuquerque Center
Fri 11:37:13 AM 32.4089 -109.2817 102° East 496 571 33,000  Level Albuquerque Center
Fri 11:38:15 AM 32.3733 -109.0942 103° East 496 571 33,000  Level Albuquerque Center
Fri 11:39:17 AM 32.3444 -108.9356 102° East 497 572 33,000  Level Albuquerque Center
Fri 11:40:19 AM 32.3142 -108.7761 103° East 502 578 33,000  Level Albuquerque Center
Fri 11:41:21 AM 32.2836 -108.6169 103° East 503 579 33,000  Level Albuquerque Center
Fri 11:42:23 AM 32.2469 -108.4258 103° East 503 579 33,000  Level Albuquerque Center
Fri 11:43:25 AM 32.2219 -108.2894 102° East 502 578 33,000  Level Albuquerque Center
Fri 11:44:27 AM 32.1839 -108.0969 103° East 504 580 33,000  Level Albuquerque Center
Fri 11:45:29 AM 32.1533 -107.9358 103° East 505 581 33,000  Level Albuquerque Center
Fri 11:46:31 AM 32.1217 -107.7761 103° East 504 580 33,000  Level Albuquerque Center
Fri 11:47:33 AM 32.0894 -107.6153 103° East 506 582 33,000  Level Albuquerque Center
Fri 11:48:35 AM 32.0592 -107.4558 103° East 504 580 33,000  Level Albuquerque Center
Fri 11:49:37 AM 32.0206 -107.2658 103° East 504 580 33,000  Level Albuquerque Center
Fri 11:50:39 AM 31.9886 -107.1075 103° East 502 578 33,000 435 Level Albuquerque Center
Fri 11:51:41 AM 31.9567 -106.9486 103° East 503 579 33,900 968 Climbing Albuquerque Center
Fri 11:52:43 AM 31.9233 -106.7914 104° East 500 575 35,000 1,065 Climbing Albuquerque Center
Fri 11:53:45 AM 31.8836 -106.6008 104° East 503 579 36,100 968 Climbing Albuquerque Center
Fri 11:54:47 AM 31.8539 -106.4550 103° East 504 580 37,000 435 Climbing Albuquerque Center
Fri 11:55:49 AM 31.8211 -106.2956 104° East 503 579 37,000  Level Albuquerque Center
Fri 11:56:51 AM 31.7983 -106.1319 99° East 507 583 37,000 -48 Level Albuquerque Center
Fri 11:57:53 AM 31.7733 -105.9344 98° East 509 586 36,900 -48 Descending Albuquerque Center
Fri 11:58:55 AM 31.7533 -105.7689 98° East 512 589 36,900 48 Level Albuquerque Center
Fri 11:59:57 AM 31.7336 -105.6039 98° East 510 587 37,000 48 Climbing Albuquerque Center
Fri 12:01:00 PM 31.7133 -105.4397 98° East 509 586 37,000  Level Albuquerque Center
Fri 12:02:02 PM 31.6939 -105.2747 98° East 508 585 37,000  Level Albuquerque Center
Fri 12:03:04 PM 31.6731 -105.1081 98° East 510 587 37,000  Level Albuquerque Center
Fri 12:04:06 PM 31.6522 -104.9425 98° East 511 588 37,000 -48 Level Albuquerque Center
Fri 12:05:08 PM 31.6269 -104.7444 98° East 511 588 36,900 -48 Descending Albuquerque Center
Fri 12:06:10 PM 31.6058 -104.5803 99° East 510 587 36,900 48 Level Albuquerque Center
Fri 12:07:12 PM 31.5853 -104.4183 98° East 505 581 37,000 48 Climbing Albuquerque Center
Fri 12:08:14 PM 31.5650 -104.2558 98° East 503 579 37,000  Level Albuquerque Center
Fri 12:09:16 PM 31.5425 -104.0928 99° East 506 582 37,000  Level Albuquerque Center
Fri 12:10:18 PM 31.5200 -103.9294 99° East 506 582 37,000  Level Albuquerque Center
Fri 12:11:20 PM 31.4922 -103.7389 100° East 506 582 37,000  Level Albuquerque Center
Fri 12:12:22 PM 31.4703 -103.5775 99° East 504 580 37,000  Level Albuquerque Center
Fri 12:13:24 PM 31.4483 -103.4139 99° East 506 582 37,000  Level Albuquerque Center
Fri 12:14:26 PM 31.4297 -103.2508 98° East 507 583 37,000  Level Albuquerque Center
Fri 12:15:28 PM 31.4094 -103.0883 98° East 506 582 37,000  Level Albuquerque Center
Fri 12:16:30 PM 31.3833 -102.8925 99° East 507 583 37,000  Level Albuquerque Center
Fri 12:17:32 PM 31.3633 -102.7311 98° East 505 581 37,000  Level Albuquerque Center
Fri 12:18:34 PM 31.3425 -102.5692 99° East 504 580 37,000  Level Albuquerque Center
Fri 12:19:36 PM 31.3186 -102.3881 99° East 514 592 37,000  Level Albuquerque Center
Fri 12:20:38 PM 31.2972 -102.2267 99° East 508 585 37,000  Level Albuquerque Center
Fri 12:21:40 PM 31.2758 -102.0664 99° East 504 580 37,000 -97 Level Albuquerque Center
Fri 12:22:42 PM 31.2556 -101.9014 98° East 505 581 36,800 -720 Descending Albuquerque Center
Fri 12:23:45 PM 31.2328 -101.7392 99° East 507 583 35,500 -1,056 Descending Albuquerque Center
Fri 12:24:30 PM 31.2139 -101.6081 100° East 507 583 34,900 -280 Descending Houston Center
Fri 12:25:32 PM 31.1922 -101.4478 99° East 506 582 35,000 48 Climbing Houston Center
Fri 12:26:34 PM 31.1703 -101.2881 99° East 502 578 35,000  Level Houston Center
Fri 12:27:36 PM 31.1492 -101.1272 99° East 501 577 35,000 -48 Level Houston Center
Fri 12:28:38 PM 31.1225 -100.9356 99° East 498 573 34,900  Descending Houston Center
Fri 12:29:40 PM 31.0992 -100.7756 100° East 499 574 35,000 48 Climbing Houston Center
Fri 12:30:42 PM 31.0761 -100.6175 100° East 494 568 35,000  Level Houston Center
Fri 12:31:45 PM 31.0519 -100.4575 100° East 500 575 35,000 -48 Level Houston Center
Fri 12:32:47 PM 31.0294 -100.2978 99° East 498 573 34,900  Descending Houston Center
Fri 12:33:49 PM 31.0042 -100.1392 100° East 497 572 35,000 48 Climbing Houston Center
Fri 12:34:51 PM 30.9769 -99.9475 99° East 497 572 35,000  Level Houston Center
Fri 12:35:53 PM 30.9533 -99.7875 100° East 498 573 35,000  Level Houston Center
Fri 12:36:55 PM 30.9292 -99.6283 100° East 499 574 35,000 -48 Level Houston Center
Fri 12:37:57 PM 30.9050 -99.4667 100° East 505 581 34,900  Descending Houston Center
Fri 12:39:00 PM 30.8794 -99.3050 100° East 507 583 35,000 48 Climbing Houston Center
Fri 12:40:02 PM 30.8500 -99.1200 100° East 508 585 35,000  Level Houston Center
Fri 12:41:04 PM 30.8242 -98.9575 100° East 508 585 35,000 -532 Level Houston Center
Fri 12:42:06 PM 30.7992 -98.7939 100° East 510 587 33,900 -919 Descending Houston Center
Fri 12:43:08 PM 30.7972 -98.6303 91° East 506 582 33,100 -823 Descending Houston Center
Fri 12:44:10 PM 30.8033 -98.4669 87° East 502 578 32,200 -968 Descending Houston Center
Fri 12:45:12 PM 30.8067 -98.3042 89° East 500 575 31,100 -1,296 Descending Houston Center
Fri 12:46:15 PM 30.8089 -98.1142 89° East 499 574 29,500 -1,008 Descending Houston Center
Fri 12:47:17 PM 30.8108 -97.9497 89° East 504 580 29,000 -242 Descending Houston Center
Fri 12:48:19 PM 30.8128 -97.7839 89° East 508 585 29,000  Level Houston Center
Fri 12:49:21 PM 30.8133 -97.6211 90° East 504 580 29,000  Level Houston Center
Fri 12:50:23 PM 30.8153 -97.4575 89° East 504 580 29,000  Level Houston Center
Fri 12:51:25 PM 30.8164 -97.2692 90° East 505 581 29,000  Level Houston Center
Fri 12:52:27 PM 30.8197 -97.1108 89° East 498 573 29,000 -96 Level Houston Center
Fri 12:53:30 PM 30.8214 -96.9611 89° East 464 534 28,800 -1,056 Descending Houston Center
Fri 12:54:32 PM 30.8236 -96.8125 89° East 458 527 26,800 -2,177 Descending Houston Center
Fri 12:55:34 PM 30.7989 -96.6686 101° East 450 518 24,300 -2,613 Descending Houston Center
Fri 12:56:36 PM 30.7450 -96.5389 116° Southeast 442 509 21,400 -3,097 Descending Houston Center
Fri 12:57:38 PM 30.6842 -96.3975 117° Southeast 416 479 17,900 -2,806 Descending Houston Center
Fri 12:58:40 PM 30.6369 -96.2803 115° Southeast 399 459 15,600 -2,365 Descending Houston Center
Fri 12:59:22 PM 30.6022 -96.2047 118° Southeast 382 440 13,800 -2,419 Descending Houston Center
Fri 12:59:42 PM 30.5883 -96.1711 116° Southeast 382 440 13,100 -2,182 Descending Houston Center
Fri 01:00:06 PM 30.5681 -96.1261 118° Southeast 372 428 12,200 -2,032 Descending Houston Center
Fri 01:00:44 PM 30.5431 -96.0658 116° Southeast 365 420 11,000 -2,066 Descending Houston Center
Fri 01:01:07 PM 30.5214 -96.0200 119° Southeast 347 399 10,100 -952 Descending Houston Center
Fri 01:01:47 PM 30.4986 -95.9694 118° Southeast 338 389 10,000 -98 Descending Houston Center
Fri 01:02:08 PM 30.4822 -95.9300 116° Southeast 297 342 10,000  Level Houston Center
Fri 01:02:49 PM 30.4625 -95.8847 117° Southeast 299 344 10,000 -194 Level Houston Center
Fri 01:03:10 PM 30.4333 -95.8508 135° Southeast 299 344 9,800 -871 Descending Houston Center
Fri 01:03:51 PM 30.3928 -95.8458 174° South 300 345 9,100 -1,254 Descending Houston Center
Fri 01:04:17 PM 30.3422 -95.8419 176° South 299 344 8,400 -1,065 Descending Houston Center
Fri 01:04:53 PM 30.2942 -95.8267 165° South 303 349 8,000 -387 Descending Houston Center
Fri 01:05:19 PM 30.2597 -95.8106 158° South 292 336 8,000  Level Houston Center
Fri 01:05:55 PM 30.2194 -95.7900 156° South 294 338 8,000 -393 Level Houston Center
Fri 01:06:20 PM 30.1831 -95.7736 159° South 291 335 7,600 -1,065 Descending Houston Center
Fri 01:06:57 PM 30.1447 -95.7550 157° South 291 335 6,900 -1,180 Descending Houston Center
Fri 01:07:21 PM 30.1106 -95.7386 157° South 286 329 6,400 -968 Descending Houston Center
Fri 01:07:59 PM 30.0736 -95.7167 153° Southeast 284 327 5,900 -1,065 Descending Houston Center
Fri 01:08:23 PM 30.0414 -95.6911 146° Southeast 267 307 5,300 -762 Descending Houston Center
Fri 01:09:02 PM 30.0150 -95.6664 141° Southeast 268 308 5,100 -590 Descending Houston Center
Fri 01:09:24 PM 29.9961 -95.6314 122° Southeast 233 268 4,700 -677 Descending Houston Center
Fri 01:10:04 PM 29.9908 -95.5994 101° East 235 270 4,400 -787 Descending Houston Center
Fri 01:10:25 PM 29.9917 -95.5594 89° East 219 252 3,900 -1,429 Descending Houston Center

Login

Don't have an account? Register now (free) for customized features, flight alerts, and more!